Time;durP1;ratioP1;P1;durP2;ratioP2;P2;SDS_P1;SDS_P2;PMS_P1;PMS_P2;Temp;Humidity;BMP_temperature;BMP_pressure;BME280_temperature;BME280_humidity;BME280_pressure;Samples;Min_cycle;Max_cycle;Signal;HPM_P1;HPM_P2
2022/01/13 00:01:10;;;;;;;6.27;1.93;;;;;;;;;;6313348;28;20232;-78
2022/01/13 00:04:18;;;;;;;8.60;1.60;;;;;;;;;;6313294;28;20210;-78
2022/01/13 00:07:22;;;;;;;6.33;1.63;;;;;;;;;;6313684;28;20218;-77
2022/01/13 00:10:26;;;;;;;10.97;2.13;;;;;;;;;;6311647;28;20234;-78
2022/01/13 00:13:44;;;;;;;4.00;1.50;;;;;;;;;;6313727;28;20191;-78
2022/01/13 00:17:09;;;;;;;5.83;1.57;;;;;;;;;;6312885;28;20234;-78
2022/01/13 00:20:33;;;;;;;6.53;2.00;;;;;;;;;;6312962;28;20227;-77
2022/01/13 00:23:46;;;;;;;4.17;1.47;;;;;;;;;;6312419;28;20191;-77
2022/01/13 00:26:52;;;;;;;8.13;1.60;;;;;;;;;;6312272;28;20238;-77
2022/01/13 00:30:00;;;;;;;5.67;1.80;;;;;;;;;;6312750;28;20250;-78
2022/01/13 00:33:04;;;;;;;10.13;1.77;;;;;;;;;;6312917;28;20236;-78
2022/01/13 00:36:11;;;;;;;2.03;1.77;;;;;;;;;;6312667;28;20234;-78
2022/01/13 00:39:15;;;;;;;8.23;1.73;;;;;;;;;;6313128;28;20248;-78
2022/01/13 00:42:22;;;;;;;2.70;1.60;;;;;;;;;;6287929;28;20272;-77
2022/01/13 00:45:26;;;;;;;8.13;1.87;;;;;;;;;;6287243;28;20238;-78
2022/01/13 00:48:31;;;;;;;12.47;1.80;;;;;;;;;;6288149;28;20185;-78
2022/01/13 00:51:36;;;;;;;7.63;1.60;;;;;;;;;;6268605;28;20431;-78
2022/01/13 00:54:41;;;;;;;2.97;1.63;;;;;;;;;;6286191;28;20256;-78
2022/01/13 00:57:45;;;;;;;6.40;1.63;;;;;;;;;;6284259;28;20208;-78
2022/01/13 01:00:49;;;;;;;5.47;1.43;;;;;;;;;;6285883;28;20269;-78
2022/01/13 01:03:53;;;;;;;3.83;2.00;;;;;;;;;;6287286;28;20264;-78
2022/01/13 01:06:59;;;;;;;7.43;1.80;;;;;;;;;;6286701;28;20625;-78
2022/01/13 01:10:05;;;;;;;5.20;1.60;;;;;;;;;;6287397;28;20241;-78
2022/01/13 01:13:15;;;;;;;6.40;1.77;;;;;;;;;;6287394;28;20241;-77
2022/01/13 01:16:19;;;;;;;4.27;2.00;;;;;;;;;;6286452;28;20248;-78
2022/01/13 01:19:27;;;;;;;4.30;1.40;;;;;;;;;;6286263;28;20589;-78
2022/01/13 01:22:41;;;;;;;6.07;1.70;;;;;;;;;;6286952;28;20282;-78
2022/01/13 01:25:58;;;;;;;4.97;1.47;;;;;;;;;;6286502;28;20237;-78
2022/01/13 01:29:12;;;;;;;2.90;1.53;;;;;;;;;;6286153;28;20186;-78
2022/01/13 01:32:17;;;;;;;7.80;1.67;;;;;;;;;;6286272;28;20290;-78
2022/01/13 01:35:25;;;;;;;4.33;1.60;;;;;;;;;;6285938;28;20243;-78
2022/01/13 01:38:30;;;;;;;7.97;1.50;;;;;;;;;;6287434;28;20227;-77
2022/01/13 01:41:35;;;;;;;7.17;1.70;;;;;;;;;;6285679;28;20235;-77
2022/01/13 01:44:43;;;;;;;9.50;1.90;;;;;;;;;;6285836;28;20557;-78
2022/01/13 01:47:51;;;;;;;7.30;1.90;;;;;;;;;;6286201;28;20186;-78
2022/01/13 01:50:58;;;;;;;6.03;1.50;;;;;;;;;;6285883;28;20558;-78
2022/01/13 01:54:03;;;;;;;10.10;1.70;;;;;;;;;;6287217;28;20189;-78
2022/01/13 01:57:09;;;;;;;5.97;1.93;;;;;;;;;;6286293;28;20244;-78
2022/01/13 02:00:16;;;;;;;10.37;1.70;;;;;;;;;;6286345;28;20343;-77
2022/01/13 02:03:26;;;;;;;3.67;1.60;;;;;;;;;;6286824;28;20186;-78
2022/01/13 02:06:30;;;;;;;4.90;1.80;;;;;;;;;;6285833;28;20529;-78
2022/01/13 02:09:38;;;;;;;7.77;1.63;;;;;;;;;;6286206;28;20185;-78
2022/01/13 02:12:46;;;;;;;5.23;1.97;;;;;;;;;;6285660;28;20494;-78
2022/01/13 02:16:01;;;;;;;4.27;1.60;;;;;;;;;;6285883;28;20303;-78
2022/01/13 02:19:06;;;;;;;5.70;2.13;;;;;;;;;;6286264;28;20232;-77
2022/01/13 02:22:15;;;;;;;4.40;1.60;;;;;;;;;;6285452;28;20257;-78
2022/01/13 02:25:20;;;;;;;8.67;1.60;;;;;;;;;;6285563;28;20236;-77
2022/01/13 02:28:25;;;;;;;5.33;1.60;;;;;;;;;;6285401;28;20477;-77
2022/01/13 02:31:29;;;;;;;8.73;1.70;;;;;;;;;;6285691;28;20229;-78
2022/01/13 02:34:33;;;;;;;7.03;1.83;;;;;;;;;;6287642;28;20273;-78
2022/01/13 02:37:39;;;;;;;8.63;1.43;;;;;;;;;;6290868;28;20192;-78
2022/01/13 02:40:43;;;;;;;8.57;1.70;;;;;;;;;;6290246;28;20256;-78
2022/01/13 02:43:47;;;;;;;7.47;1.93;;;;;;;;;;6290984;28;20189;-77
2022/01/13 02:47:08;;;;;;;8.67;2.07;;;;;;;;;;6289950;28;20394;-78
2022/01/13 02:50:32;;;;;;;5.30;1.60;;;;;;;;;;6289696;28;20231;-78
2022/01/13 02:53:38;;;;;;;7.83;1.83;;;;;;;;;;6290501;28;20195;-78
2022/01/13 02:56:43;;;;;;;4.03;1.63;;;;;;;;;;6289248;28;20426;-77
2022/01/13 02:59:47;;;;;;;6.93;1.60;;;;;;;;;;6308379;28;20225;-78
2022/01/13 03:02:52;;;;;;;5.50;1.30;;;;;;;;;;6314250;28;20382;-78
2022/01/13 03:05:57;;;;;;;8.17;2.20;;;;;;;;;;6314142;28;20345;-78
2022/01/13 03:09:04;;;;;;;8.63;1.93;;;;;;;;;;6315047;28;20186;-77
2022/01/13 03:12:09;;;;;;;3.30;1.73;;;;;;;;;;6314328;28;20233;-78
2022/01/13 03:15:14;;;;;;;5.27;1.53;;;;;;;;;;6314426;28;20236;-78
2022/01/13 03:18:23;;;;;;;4.50;1.50;;;;;;;;;;6315158;28;20253;-78
2022/01/13 03:21:28;;;;;;;6.93;2.20;;;;;;;;;;6313794;28;20238;-78
2022/01/13 03:24:33;;;;;;;4.30;1.57;;;;;;;;;;6313205;28;20193;-78
2022/01/13 03:27:38;;;;;;;9.03;1.60;;;;;;;;;;6313677;28;20632;-77
2022/01/13 03:30:42;;;;;;;5.70;1.63;;;;;;;;;;6313860;28;20227;-78
2022/01/13 03:33:46;;;;;;;7.50;1.60;;;;;;;;;;6313385;28;20542;-78
2022/01/13 03:36:50;;;;;;;5.67;1.60;;;;;;;;;;6313529;28;20232;-78
2022/01/13 03:39:56;;;;;;;7.53;1.90;;;;;;;;;;6313377;28;20228;-78
2022/01/13 03:43:01;;;;;;;6.77;1.53;;;;;;;;;;6314645;28;20261;-78
2022/01/13 03:46:05;;;;;;;10.33;1.97;;;;;;;;;;6312709;28;20230;-78
2022/01/13 03:49:16;;;;;;;3.10;1.40;;;;;;;;;;6313100;28;20458;-78
2022/01/13 03:52:50;;;;;;;6.53;2.33;;;;;;;;;;6313639;28;20422;-78
2022/01/13 03:56:31;;;;;;;7.37;1.97;;;;;;;;;;6313278;28;20258;-78
2022/01/13 04:00:09;;;;;;;9.73;1.70;;;;;;;;;;6312734;28;20217;-78
2022/01/13 04:03:18;;;;;;;6.33;1.93;;;;;;;;;;6313129;28;20203;-77
2022/01/13 04:06:41;;;;;;;9.97;1.93;;;;;;;;;;6312811;28;20508;-78
2022/01/13 04:10:25;;;;;;;3.30;1.50;;;;;;;;;;6312187;28;20253;-78
2022/01/13 04:13:45;;;;;;;3.03;1.40;;;;;;;;;;6313967;28;20184;-78
2022/01/13 04:16:50;;;;;;;8.93;1.83;;;;;;;;;;6312214;28;20246;-78
2022/01/13 04:19:55;;;;;;;5.27;1.87;;;;;;;;;;6311891;28;20454;-78
2022/01/13 04:22:59;;;;;;;4.37;1.50;;;;;;;;;;6312950;28;20193;-78
2022/01/13 04:26:05;;;;;;;2.33;1.43;;;;;;;;;;6312868;28;20228;-78
2022/01/13 04:29:20;;;;;;;4.60;1.80;;;;;;;;;;6312061;28;20503;-78
2022/01/13 04:32:25;;;;;;;2.07;1.50;;;;;;;;;;6312942;28;20217;-78
2022/01/13 04:35:30;;;;;;;3.63;1.50;;;;;;;;;;6311489;28;20542;-78
2022/01/13 04:38:34;;;;;;;4.03;1.60;;;;;;;;;;6312113;28;20532;-78
2022/01/13 04:41:40;;;;;;;2.63;1.53;;;;;;;;;;6312069;28;20263;-78
2022/01/13 04:44:44;;;;;;;4.03;1.47;;;;;;;;;;6312528;28;20225;-77
2022/01/13 04:47:50;;;;;;;4.43;1.83;;;;;;;;;;6311770;28;20384;-78
2022/01/13 04:50:55;;;;;;;4.17;1.50;;;;;;;;;;6312308;28;20251;-78
2022/01/13 04:53:59;;;;;;;3.70;1.90;;;;;;;;;;6312831;28;20217;-78
2022/01/13 04:57:08;;;;;;;4.63;1.50;;;;;;;;;;6311662;28;20241;-78
2022/01/13 05:00:12;;;;;;;5.60;1.33;;;;;;;;;;6309903;28;20247;-78
2022/01/13 05:03:23;;;;;;;3.00;1.47;;;;;;;;;;6313043;28;20184;-78
2022/01/13 05:06:27;;;;;;;8.87;1.40;;;;;;;;;;6312066;28;20270;-78
2022/01/13 05:09:31;;;;;;;2.43;1.10;;;;;;;;;;6312218;28;20213;-78
2022/01/13 05:12:40;;;;;;;4.80;1.33;;;;;;;;;;6312754;28;20301;-78
2022/01/13 05:15:45;;;;;;;4.17;1.63;;;;;;;;;;6311530;28;20597;-78
2022/01/13 05:18:55;;;;;;;2.30;1.73;;;;;;;;;;6313280;28;20193;-77
2022/01/13 05:22:17;;;;;;;4.67;1.60;;;;;;;;;;6312187;28;20232;-77
2022/01/13 05:25:22;;;;;;;2.93;1.23;;;;;;;;;;6311287;28;20419;-77
2022/01/13 05:28:43;;;;;;;5.00;1.30;;;;;;;;;;6311616;28;20224;-78
2022/01/13 05:31:48;;;;;;;6.20;1.50;;;;;;;;;;6311185;28;20291;-78
2022/01/13 05:34:54;;;;;;;4.53;1.67;;;;;;;;;;6311400;28;20285;-78
2022/01/13 05:37:58;;;;;;;7.67;1.13;;;;;;;;;;6311044;28;20476;-78
2022/01/13 05:41:02;;;;;;;6.07;1.50;;;;;;;;;;6311789;28;20227;-78
2022/01/13 05:44:07;;;;;;;3.27;1.23;;;;;;;;;;6312343;28;20184;-78
2022/01/13 05:47:12;;;;;;;1.37;1.27;;;;;;;;;;6310955;28;20237;-78
2022/01/13 05:50:19;;;;;;;3.13;1.10;;;;;;;;;;6310527;28;20468;-78
2022/01/13 05:53:25;;;;;;;3.13;1.50;;;;;;;;;;6312206;28;20185;-78
2022/01/13 05:56:29;;;;;;;5.17;1.43;;;;;;;;;;6303181;28;20298;-77
2022/01/13 05:59:33;;;;;;;10.57;1.50;;;;;;;;;;6310463;28;20485;-78
2022/01/13 06:02:37;;;;;;;1.57;1.23;;;;;;;;;;6310857;28;20272;-78
2022/01/13 06:05:43;;;;;;;2.90;1.20;;;;;;;;;;6311084;28;20229;-78
2022/01/13 06:08:47;;;;;;;4.53;1.40;;;;;;;;;;6312459;28;20216;-78
2022/01/13 06:11:58;;;;;;;1.63;1.30;;;;;;;;;;6315867;28;20228;-78
2022/01/13 06:15:04;;;;;;;4.00;1.20;;;;;;;;;;6316221;28;20229;-78
2022/01/13 06:18:16;;;;;;;6.33;1.20;;;;;;;;;;6316686;28;20189;-78
2022/01/13 06:21:22;;;;;;;1.70;1.23;;;;;;;;;;6315411;28;20234;-78
2022/01/13 06:24:26;;;;;;;6.63;1.40;;;;;;;;;;6316022;28;20186;-78
2022/01/13 06:27:31;;;;;;;5.20;1.20;;;;;;;;;;6315313;28;20466;-78
2022/01/13 06:30:38;;;;;;;7.57;2.17;;;;;;;;;;6315436;28;20240;-78
2022/01/13 06:33:42;;;;;;;2.47;1.30;;;;;;;;;;6315379;28;20259;-78
2022/01/13 06:36:52;;;;;;;1.20;1.20;;;;;;;;;;6314326;28;20565;-77
2022/01/13 06:39:56;;;;;;;2.23;1.37;;;;;;;;;;6315148;28;20307;-78
2022/01/13 06:43:01;;;;;;;1.20;1.10;;;;;;;;;;6315576;28;20184;-77
2022/01/13 06:46:05;;;;;;;3.03;1.37;;;;;;;;;;6315315;28;20231;-78
2022/01/13 06:49:09;;;;;;;2.50;1.40;;;;;;;;;;6314440;28;20541;-78
2022/01/13 06:52:16;;;;;;;3.67;1.30;;;;;;;;;;6314960;28;20230;-78
2022/01/13 06:55:21;;;;;;;3.27;1.40;;;;;;;;;;6314598;28;20229;-76
2022/01/13 06:58:25;;;;;;;4.93;1.13;;;;;;;;;;6315272;28;20262;-77
2022/01/13 07:01:29;;;;;;;6.13;1.57;;;;;;;;;;6314243;28;20236;-76
2022/01/13 07:04:33;;;;;;;3.40;1.20;;;;;;;;;;6314560;28;20253;-77
2022/01/13 07:07:40;;;;;;;3.40;1.23;;;;;;;;;;6315155;28;20185;-77
2022/01/13 07:10:46;;;;;;;2.90;1.33;;;;;;;;;;6313547;28;20579;-77
2022/01/13 07:13:50;;;;;;;4.17;1.40;;;;;;;;;;6313698;28;20414;-77
2022/01/13 07:16:54;;;;;;;1.10;1.10;;;;;;;;;;6313911;28;20236;-77
2022/01/13 07:19:59;;;;;;;3.03;1.10;;;;;;;;;;6313710;28;20244;-77
2022/01/13 07:23:04;;;;;;;4.67;1.37;;;;;;;;;;6315059;28;20301;-79
2022/01/13 07:26:11;;;;;;;6.77;1.30;;;;;;;;;;6315417;28;20234;-78
2022/01/13 07:29:14;;;;;;;1.17;1.17;;;;;;;;;;6315639;28;20245;-79
2022/01/13 07:32:19;;;;;;;1.40;1.27;;;;;;;;;;6315715;28;20228;-78
2022/01/13 07:35:25;;;;;;;4.17;1.30;;;;;;;;;;6315383;28;20233;-80
2022/01/13 07:38:30;;;;;;;1.73;1.40;;;;;;;;;;6314857;28;20189;-80
2022/01/13 07:41:36;;;;;;;5.10;1.30;;;;;;;;;;6314811;28;20230;-79
2022/01/13 07:44:41;;;;;;;1.70;1.50;;;;;;;;;;6314892;28;20247;-79
2022/01/13 07:47:45;;;;;;;2.87;1.50;;;;;;;;;;6317147;28;20223;-80
2022/01/13 07:50:50;;;;;;;2.27;1.13;;;;;;;;;;6316937;28;20489;-78
2022/01/13 07:53:56;;;;;;;1.57;1.27;;;;;;;;;;6316139;28;20193;-78
2022/01/13 07:57:00;;;;;;;2.60;1.20;;;;;;;;;;6313490;28;20301;-79
2022/01/13 08:00:07;;;;;;;1.17;1.17;;;;;;;;;;6313407;28;20234;-81
2022/01/13 08:03:16;;;;;;;1.70;1.20;;;;;;;;;;6313997;28;20208;-78
2022/01/13 08:06:20;;;;;;;3.97;1.53;;;;;;;;;;6313104;28;20235;-78
2022/01/13 08:09:26;;;;;;;4.17;1.23;;;;;;;;;;6313267;28;20222;-78
2022/01/13 08:12:30;;;;;;;2.43;1.40;;;;;;;;;;6313003;28;20437;-78
2022/01/13 08:15:36;;;;;;;4.63;1.37;;;;;;;;;;6312728;28;20256;-77
2022/01/13 08:22:02;;;;;;;2.30;1.53;;;;;;;;;;6312813;28;20238;-78
2022/01/13 08:25:08;;;;;;;2.40;1.27;;;;;;;;;;6312725;28;20234;-78
2022/01/13 08:28:16;;;;;;;3.10;1.20;;;;;;;;;;6312367;28;20489;-78
2022/01/13 08:31:20;;;;;;;5.40;1.30;;;;;;;;;;6311417;28;20233;-78
2022/01/13 08:34:25;;;;;;;3.43;1.30;;;;;;;;;;6311882;28;20243;-78
2022/01/13 08:37:29;;;;;;;4.47;1.30;;;;;;;;;;6295639;28;20202;-78
2022/01/13 08:40:35;;;;;;;6.60;1.40;;;;;;;;;;6313280;28;20241;-78
2022/01/13 08:43:40;;;;;;;1.27;1.20;;;;;;;;;;6314150;28;20186;-79
2022/01/13 08:46:44;;;;;;;2.67;1.40;;;;;;;;;;6313076;28;20238;-78
2022/01/13 08:49:49;;;;;;;2.60;1.40;;;;;;;;;;6313358;28;20290;-77
2022/01/13 08:52:54;;;;;;;1.50;1.40;;;;;;;;;;6312532;28;20236;-78
2022/01/13 08:56:00;;;;;;;3.27;1.20;;;;;;;;;;6313766;28;20237;-78
2022/01/13 08:59:04;;;;;;;1.40;1.30;;;;;;;;;;6316627;28;20254;-77
2022/01/13 09:02:10;;;;;;;3.97;1.43;;;;;;;;;;6315159;28;20346;-77
2022/01/13 09:05:17;;;;;;;2.00;1.30;;;;;;;;;;6311248;28;20588;-78
2022/01/13 09:08:21;;;;;;;1.70;1.20;;;;;;;;;;6312691;28;20222;-77
2022/01/13 09:11:29;;;;;;;4.30;1.70;;;;;;;;;;6312427;28;20412;-77
2022/01/13 09:14:33;;;;;;;6.03;1.50;;;;;;;;;;6312346;28;20226;-77
2022/01/13 09:17:38;;;;;;;2.50;1.30;;;;;;;;;;6313566;28;20250;-77
2022/01/13 09:20:43;;;;;;;5.87;1.30;;;;;;;;;;6311603;28;20245;-77
2022/01/13 09:23:48;;;;;;;4.03;1.20;;;;;;;;;;6311041;28;20532;-77
2022/01/13 09:26:54;;;;;;;8.73;1.80;;;;;;;;;;6311901;28;20288;-77
2022/01/13 09:29:58;;;;;;;2.10;1.40;;;;;;;;;;6311773;28;20244;-76
2022/01/13 09:33:02;;;;;;;2.83;1.13;;;;;;;;;;6312578;28;20476;-77
2022/01/13 09:36:08;;;;;;;3.73;1.60;;;;;;;;;;6314065;28;20302;-77
2022/01/13 09:39:14;;;;;;;6.63;1.80;;;;;;;;;;6313600;28;20193;-80
2022/01/13 09:42:21;;;;;;;5.57;1.47;;;;;;;;;;6313610;28;20232;-77
2022/01/13 09:45:26;;;;;;;4.13;1.43;;;;;;;;;;6317823;28;20237;-76
2022/01/13 09:48:39;;;;;;;2.93;1.33;;;;;;;;;;6321948;28;20215;-76
2022/01/13 09:51:45;;;;;;;3.47;1.30;;;;;;;;;;6316565;28;20429;-76
2022/01/13 09:54:50;;;;;;;3.97;1.03;;;;;;;;;;6318437;28;20452;-76
2022/01/13 09:58:02;;;;;;;6.60;1.60;;;;;;;;;;6322510;28;20187;-76
2022/01/13 10:01:06;;;;;;;1.10;1.10;;;;;;;;;;6320476;28;20292;-76
2022/01/13 10:04:14;;;;;;;2.93;1.20;;;;;;;;;;6287636;28;20261;-76
2022/01/13 10:07:31;;;;;;;5.30;1.70;;;;;;;;;;6318968;28;20284;-76
2022/01/13 10:10:54;;;;;;;2.83;1.40;;;;;;;;;;6315688;28;20233;-76
2022/01/13 10:14:15;;;;;;;3.47;1.47;;;;;;;;;;6316858;28;20240;-76
2022/01/13 10:17:19;;;;;;;3.43;2.10;;;;;;;;;;6319644;28;20206;-76
2022/01/13 10:20:23;;;;;;;5.47;1.57;;;;;;;;;;6302381;28;20622;-77
2022/01/13 10:23:30;;;;;;;4.70;1.60;;;;;;;;;;6318317;28;20218;-77
2022/01/13 10:26:35;;;;;;;5.27;1.30;;;;;;;;;;6315461;28;20237;-77
2022/01/13 10:29:44;;;;;;;4.17;1.53;;;;;;;;;;6315654;28;20186;-77
2022/01/13 10:32:49;;;;;;;8.00;1.50;;;;;;;;;;6315485;28;20481;-77
2022/01/13 10:35:57;;;;;;;4.13;1.77;;;;;;;;;;6315455;28;20280;-77
2022/01/13 10:39:02;;;;;;;0.97;0.97;;;;;;;;;;6315467;28;20253;-77
2022/01/13 10:42:20;;;;;;;4.60;1.77;;;;;;;;;;6315218;28;20237;-77
2022/01/13 10:45:28;;;;;;;4.77;1.63;;;;;;;;;;6319470;28;20241;-77
2022/01/13 10:48:35;;;;;;;2.13;1.17;;;;;;;;;;6321382;28;20193;-76
2022/01/13 10:51:39;;;;;;;6.03;1.27;;;;;;;;;;6319631;28;20238;-76
2022/01/13 10:54:44;;;;;;;8.63;1.90;;;;;;;;;;6319098;28;20229;-77
2022/01/13 10:57:50;;;;;;;1.47;1.37;;;;;;;;;;6297722;28;20277;-77
2022/01/13 11:00:56;;;;;;;1.77;1.40;;;;;;;;;;6294856;28;20258;-77
2022/01/13 11:04:01;;;;;;;3.53;1.10;;;;;;;;;;6295053;28;20374;-76
2022/01/13 11:07:16;;;;;;;11.07;1.43;;;;;;;;;;6294194;28;20295;-76
2022/01/13 11:10:22;;;;;;;5.70;1.60;;;;;;;;;;6293966;28;20556;-76
2022/01/13 11:13:28;;;;;;;6.40;1.80;;;;;;;;;;6294237;28;20191;-76
2022/01/13 11:16:35;;;;;;;5.30;1.70;;;;;;;;;;6294522;28;20235;-77
2022/01/13 11:19:41;;;;;;;1.53;1.43;;;;;;;;;;6293920;28;20186;-78
2022/01/13 11:22:47;;;;;;;3.47;1.67;;;;;;;;;;6295091;28;20199;-77
2022/01/13 11:25:53;;;;;;;4.63;1.33;;;;;;;;;;6294412;28;20230;-78
2022/01/13 11:29:00;;;;;;;1.50;1.40;;;;;;;;;;6295263;28;20194;-77
2022/01/13 11:32:09;;;;;;;4.00;1.20;;;;;;;;;;6294169;28;20246;-78
2022/01/13 11:35:15;;;;;;;3.50;1.43;;;;;;;;;;6314442;28;20254;-77
2022/01/13 11:38:19;;;;;;;7.57;1.53;;;;;;;;;;6319247;28;20187;-77
2022/01/13 11:41:24;;;;;;;4.37;1.50;;;;;;;;;;6318775;28;20230;-77
2022/01/13 11:44:28;;;;;;;2.50;1.40;;;;;;;;;;6318508;28;20269;-78
2022/01/13 11:47:34;;;;;;;3.17;1.00;;;;;;;;;;6319157;28;20256;-77
2022/01/13 11:50:43;;;;;;;1.57;1.27;;;;;;;;;;6318415;28;20525;-77
2022/01/13 11:53:56;;;;;;;2.10;1.77;;;;;;;;;;6319092;28;20187;-77
2022/01/13 11:57:20;;;;;;;3.13;1.30;;;;;;;;;;6320232;28;20237;-77
2022/01/13 12:00:28;;;;;;;3.13;1.43;;;;;;;;;;6320059;28;20235;-77
2022/01/13 12:03:36;;;;;;;3.27;1.20;;;;;;;;;;6302274;28;20217;-77
2022/01/13 12:06:45;;;;;;;3.90;1.03;;;;;;;;;;6320247;28;20275;-78
2022/01/13 12:09:50;;;;;;;5.20;1.47;;;;;;;;;;6317865;28;20240;-77
2022/01/13 12:12:54;;;;;;;3.23;1.07;;;;;;;;;;6301230;28;20233;-77
2022/01/13 12:15:59;;;;;;;2.63;1.40;;;;;;;;;;6317847;28;20239;-78
2022/01/13 12:19:10;;;;;;;2.87;1.20;;;;;;;;;;6316749;28;20250;-78
2022/01/13 12:22:20;;;;;;;2.20;1.30;;;;;;;;;;6316956;28;20476;-78
2022/01/13 12:25:33;;;;;;;3.53;1.50;;;;;;;;;;6318618;28;20292;-78
2022/01/13 12:28:38;;;;;;;3.03;1.10;;;;;;;;;;6319310;28;20276;-77
2022/01/13 12:31:54;;;;;;;1.50;1.20;;;;;;;;;;6317884;28;20242;-78
2022/01/13 12:34:59;;;;;;;3.33;1.20;;;;;;;;;;6302125;28;20405;-78
2022/01/13 12:38:09;;;;;;;2.63;1.40;;;;;;;;;;6279564;28;20194;-78
2022/01/13 12:41:26;;;;;;;3.93;1.30;;;;;;;;;;6275542;28;20242;-78
2022/01/13 12:47:54;;;;;;;5.10;1.43;;;;;;;;;;6295737;28;20225;-78
2022/01/13 12:51:03;;;;;;;1.40;1.30;;;;;;;;;;6294312;28;20561;-79
2022/01/13 12:54:09;;;;;;;3.73;1.53;;;;;;;;;;6272097;28;20256;-77
2022/01/13 12:57:14;;;;;;;4.27;1.20;;;;;;;;;;6288419;28;20230;-78
2022/01/13 13:00:20;;;;;;;2.13;1.33;;;;;;;;;;6287811;28;20253;-77
2022/01/13 13:03:24;;;;;;;11.10;1.57;;;;;;;;;;6288870;28;20223;-77
2022/01/13 13:06:32;;;;;;;4.03;1.30;;;;;;;;;;6290682;28;20230;-77
2022/01/13 13:09:36;;;;;;;4.67;1.40;;;;;;;;;;6290146;28;20205;-78
2022/01/13 13:12:40;;;;;;;2.17;1.53;;;;;;;;;;6288903;28;20293;-77
2022/01/13 13:15:52;;;;;;;3.60;1.27;;;;;;;;;;6289546;28;20228;-77
2022/01/13 13:18:56;;;;;;;2.40;1.47;;;;;;;;;;6295142;28;20195;-78
2022/01/13 13:22:08;;;;;;;7.03;1.30;;;;;;;;;;6294485;28;20303;-78
2022/01/13 13:25:13;;;;;;;5.67;1.57;;;;;;;;;;6292196;28;20314;-78
2022/01/13 13:28:36;;;;;;;3.63;1.30;;;;;;;;;;6291720;28;20187;-78
2022/01/13 13:31:45;;;;;;;5.27;1.40;;;;;;;;;;6288030;28;20293;-78
2022/01/13 13:34:49;;;;;;;2.27;0.97;;;;;;;;;;6291382;28;20544;-78
2022/01/13 13:37:56;;;;;;;2.93;1.07;;;;;;;;;;6293257;28;20194;-78
2022/01/13 13:41:01;;;;;;;3.00;1.00;;;;;;;;;;6291017;28;20229;-78
2022/01/13 13:44:09;;;;;;;3.37;1.30;;;;;;;;;;6273718;28;20290;-78
2022/01/13 13:47:21;;;;;;;3.30;1.30;;;;;;;;;;6275527;28;20406;-77
2022/01/13 13:50:30;;;;;;;1.23;1.23;;;;;;;;;;6293007;28;20250;-79
2022/01/13 13:53:38;;;;;;;2.57;1.50;;;;;;;;;;6276699;28;20233;-78
2022/01/13 13:57:03;;;;;;;5.27;1.27;;;;;;;;;;6268412;28;20248;-78
2022/01/13 14:00:10;;;;;;;1.43;1.30;;;;;;;;;;6275458;28;20231;-76
2022/01/13 14:03:22;;;;;;;4.00;1.50;;;;;;;;;;6294200;28;20190;-77
2022/01/13 14:06:41;;;;;;;4.93;1.17;;;;;;;;;;6289858;28;20271;-77
2022/01/13 14:09:55;;;;;;;4.63;1.30;;;;;;;;;;6293007;28;20250;-77
2022/01/13 14:13:03;;;;;;;1.00;1.00;;;;;;;;;;6294001;28;20406;-78
2022/01/13 14:16:34;;;;;;;1.63;1.07;;;;;;;;;;6291614;28;20494;-77
2022/01/13 14:20:01;;;;;;;2.30;1.07;;;;;;;;;;6280880;28;20186;-78
2022/01/13 14:23:15;;;;;;;1.53;1.50;;;;;;;;;;6275563;28;20213;-77
2022/01/13 14:26:24;;;;;;;2.87;1.20;;;;;;;;;;6275424;28;20231;-78
2022/01/13 14:29:32;;;;;;;1.17;1.17;;;;;;;;;;6290176;28;20212;-78
2022/01/13 14:32:39;;;;;;;1.17;1.17;;;;;;;;;;6297168;28;20226;-77
2022/01/13 14:35:46;;;;;;;0.97;0.93;;;;;;;;;;6270119;28;20235;-77
2022/01/13 14:38:53;;;;;;;1.33;1.10;;;;;;;;;;6268853;28;20223;-77
2022/01/13 14:49:28;;;;;;;4.00;1.20;;;;;;;;;;6271073;28;20303;-76
2022/01/13 14:52:35;;;;;;;2.77;1.37;;;;;;;;;;6271240;28;20226;-76
2022/01/13 14:55:39;;;;;;;1.70;1.10;;;;;;;;;;6267742;28;20254;-77
2022/01/13 14:58:46;;;;;;;3.13;1.10;;;;;;;;;;6282724;28;20226;-77
2022/01/13 15:01:50;;;;;;;3.77;1.50;;;;;;;;;;6293271;28;20536;-77
2022/01/13 15:04:54;;;;;;;1.77;1.40;;;;;;;;;;6294493;28;20237;-77
2022/01/13 15:07:58;;;;;;;3.30;1.10;;;;;;;;;;6290965;28;20478;-76
2022/01/13 15:11:03;;;;;;;1.73;1.30;;;;;;;;;;6291393;28;20262;-76
2022/01/13 15:14:09;;;;;;;3.03;0.90;;;;;;;;;;6294887;28;20245;-77
2022/01/13 15:17:13;;;;;;;1.20;1.10;;;;;;;;;;6275193;28;20253;-77
2022/01/13 15:20:17;;;;;;;6.70;1.50;;;;;;;;;;6291544;28;20242;-76
2022/01/13 15:23:21;;;;;;;4.50;0.93;;;;;;;;;;6294472;28;20388;-77
2022/01/13 15:26:26;;;;;;;3.97;1.30;;;;;;;;;;6289596;28;20253;-78
2022/01/13 15:29:32;;;;;;;2.07;1.30;;;;;;;;;;6290671;28;20208;-77
2022/01/13 15:32:36;;;;;;;2.30;1.30;;;;;;;;;;6292084;28;20203;-77
2022/01/13 15:35:40;;;;;;;2.97;1.40;;;;;;;;;;6290503;28;20549;-77
2022/01/13 15:38:44;;;;;;;1.40;1.30;;;;;;;;;;6294137;28;20191;-76
2022/01/13 15:41:49;;;;;;;0.97;0.97;;;;;;;;;;6294495;28;20228;-76
2022/01/13 15:44:56;;;;;;;1.87;1.10;;;;;;;;;;6295054;28;20281;-75
2022/01/13 15:48:00;;;;;;;3.30;1.30;;;;;;;;;;6291756;28;20210;-76
2022/01/13 15:51:06;;;;;;;4.47;1.30;;;;;;;;;;6289417;28;20288;-76
2022/01/13 15:54:10;;;;;;;2.33;1.13;;;;;;;;;;6289594;28;20225;-76
2022/01/13 15:57:14;;;;;;;1.70;1.20;;;;;;;;;;6289769;28;20256;-78
2022/01/13 16:00:22;;;;;;;4.23;1.13;;;;;;;;;;6272546;28;20240;-76
2022/01/13 16:03:26;;;;;;;1.07;1.00;;;;;;;;;;6289765;28;20250;-76
2022/01/13 16:06:30;;;;;;;3.30;1.53;;;;;;;;;;6292657;28;20229;-76
2022/01/13 16:09:34;;;;;;;5.07;1.40;;;;;;;;;;6291333;28;20190;-76
2022/01/13 16:12:38;;;;;;;1.07;1.00;;;;;;;;;;6293209;28;20187;-77
2022/01/13 16:15:45;;;;;;;1.00;1.00;;;;;;;;;;6291474;28;20242;-77
2022/01/13 16:18:50;;;;;;;5.63;1.30;;;;;;;;;;6292106;28;20191;-76
2022/01/13 16:22:08;;;;;;;3.07;1.20;;;;;;;;;;6215943;28;20281;-77
2022/01/13 16:25:19;;;;;;;1.20;1.10;;;;;;;;;;6251128;28;20230;-77
2022/01/13 16:28:24;;;;;;;2.53;1.30;;;;;;;;;;6293176;28;20194;-76
2022/01/13 16:32:09;;;;;;;3.57;1.10;;;;;;;;;;6289393;28;20526;-77
2022/01/13 16:35:40;;;;;;;2.33;1.40;;;;;;;;;;6294393;28;20230;-77
2022/01/13 16:38:52;;;;;;;3.53;1.53;;;;;;;;;;6302227;28;20509;-77
2022/01/13 16:42:04;;;;;;;0.90;0.90;;;;;;;;;;6301086;28;20255;-76
2022/01/13 16:45:23;;;;;;;3.50;1.27;;;;;;;;;;6315082;28;20233;-76
2022/01/13 16:48:30;;;;;;;2.23;1.00;;;;;;;;;;6299679;28;20224;-78
2022/01/13 16:51:35;;;;;;;1.80;1.20;;;;;;;;;;6315934;28;20311;-76
2022/01/13 16:54:39;;;;;;;1.00;1.00;;;;;;;;;;6314587;28;20210;-76
2022/01/13 16:57:45;;;;;;;2.47;0.90;;;;;;;;;;6311447;28;20205;-77
2022/01/13 17:00:50;;;;;;;3.40;1.00;;;;;;;;;;6314848;28;20288;-77
2022/01/13 17:03:56;;;;;;;3.30;1.27;;;;;;;;;;6317837;28;20500;-77
2022/01/13 17:07:04;;;;;;;4.03;1.30;;;;;;;;;;6316352;28;20235;-77
2022/01/13 17:10:22;;;;;;;1.03;0.90;;;;;;;;;;6315881;28;20287;-79
2022/01/13 17:13:31;;;;;;;4.37;1.50;;;;;;;;;;6298549;28;20240;-77
2022/01/13 17:16:36;;;;;;;6.00;1.57;;;;;;;;;;6312321;28;20340;-77
2022/01/13 17:19:43;;;;;;;4.67;1.10;;;;;;;;;;6314408;28;20249;-77
2022/01/13 17:23:05;;;;;;;2.30;1.33;;;;;;;;;;6317654;28;20186;-77
2022/01/13 17:26:17;;;;;;;2.00;1.30;;;;;;;;;;6315223;28;20262;-78
2022/01/13 17:29:22;;;;;;;2.73;1.20;;;;;;;;;;6315007;28;20261;-78
2022/01/13 17:32:56;;;;;;;2.53;1.10;;;;;;;;;;6318069;28;20212;-78
2022/01/13 17:36:14;;;;;;;1.00;1.00;;;;;;;;;;6272390;28;20297;-79
2022/01/13 17:39:26;;;;;;;1.10;1.10;;;;;;;;;;6272153;28;20185;-77
2022/01/13 17:42:34;;;;;;;1.63;1.20;;;;;;;;;;6250507;28;20207;-78
2022/01/13 17:45:39;;;;;;;2.00;1.10;;;;;;;;;;6288702;28;20242;-77
2022/01/13 17:48:56;;;;;;;1.90;1.10;;;;;;;;;;6292363;28;20474;-77
2022/01/13 17:52:17;;;;;;;2.63;1.27;;;;;;;;;;6271034;28;20243;-77
2022/01/13 17:55:27;;;;;;;1.20;1.10;;;;;;;;;;6282588;28;20524;-78
2022/01/13 17:58:31;;;;;;;3.50;1.00;;;;;;;;;;6266978;28;20373;-78
2022/01/13 18:01:35;;;;;;;2.77;1.27;;;;;;;;;;6287812;28;20230;-77
2022/01/13 18:04:47;;;;;;;3.33;1.37;;;;;;;;;;6292592;28;20235;-78
2022/01/13 18:11:23;;;;;;;1.10;1.10;;;;;;;;;;6281017;28;20229;-78
2022/01/13 18:14:50;;;;;;;2.13;1.10;;;;;;;;;;6248350;28;20224;-78
2022/01/13 18:18:01;;;;;;;3.03;1.30;;;;;;;;;;6264764;28;20209;-78
2022/01/13 18:21:14;;;;;;;2.73;1.27;;;;;;;;;;6295000;28;20230;-78
2022/01/13 18:24:19;;;;;;;0.90;0.90;;;;;;;;;;6293696;28;20187;-77
2022/01/13 18:27:23;;;;;;;1.83;1.03;;;;;;;;;;6269291;28;20212;-77
2022/01/13 18:30:28;;;;;;;1.33;1.03;;;;;;;;;;6266112;28;20228;-77
2022/01/13 18:33:32;;;;;;;4.27;1.10;;;;;;;;;;6270097;28;20522;-77
2022/01/13 18:36:36;;;;;;;1.00;1.00;;;;;;;;;;6251351;28;20247;-77
2022/01/13 18:39:44;;;;;;;2.13;1.07;;;;;;;;;;6253180;28;20295;-77
2022/01/13 18:42:53;;;;;;;3.97;1.60;;;;;;;;;;6269923;28;20255;-77
2022/01/13 18:46:12;;;;;;;1.80;1.10;;;;;;;;;;6256298;28;20283;-76
2022/01/13 18:49:49;;;;;;;3.70;1.00;;;;;;;;;;6268440;28;20241;-76
2022/01/13 18:52:54;;;;;;;2.23;1.23;;;;;;;;;;6270446;28;20189;-75
2022/01/13 18:56:05;;;;;;;3.57;1.40;;;;;;;;;;6248198;28;20293;-75
2022/01/13 18:59:17;;;;;;;2.60;1.20;;;;;;;;;;6283599;28;20190;-76
2022/01/13 19:02:21;;;;;;;1.43;1.03;;;;;;;;;;6293752;28;20276;-75
2022/01/13 19:05:26;;;;;;;1.57;0.90;;;;;;;;;;6267653;28;20245;-77